createdAt,value
2023-01-24T00:16:34.168Z,1029.63
2023-01-24T00:45:04.049Z,1029.75
2023-01-24T01:13:37.104Z,1029.74
2023-01-24T01:42:09.517Z,1029.91
2023-01-24T02:10:19.764Z,1029.97
2023-01-24T02:38:48.809Z,1030.03
2023-01-24T03:07:19.816Z,1030.21
2023-01-24T03:35:53.523Z,1030.36
2023-01-24T04:04:14.152Z,1030.51
2023-01-24T04:32:40.216Z,1030.51
2023-01-24T05:01:13.396Z,1030.6
2023-01-24T05:29:47.775Z,1030.95
2023-01-24T05:58:16.559Z,1031.03
2023-01-24T06:26:42.565Z,1031.32
2023-01-24T06:55:05.512Z,1031.51
2023-01-24T07:23:32.722Z,1031.84
2023-01-24T07:51:52.454Z,1032.09
2023-01-24T08:20:25.391Z,1032.18
2023-01-24T08:48:46.189Z,1032.36
2023-01-24T09:17:22.530Z,1032.55
2023-01-24T09:46:16.189Z,1032.69
2023-01-24T10:14:21.266Z,1032.72
2023-01-24T10:42:57.839Z,1032.64
2023-01-24T11:11:28.951Z,1032.55
2023-01-24T11:39:41.328Z,1032.47
2023-01-24T12:08:01.761Z,1032.27
2023-01-24T12:36:34.902Z,1032.14
2023-01-24T13:04:58.115Z,1031.98
2023-01-24T13:33:29.271Z,1031.92
2023-01-24T14:01:48.785Z,1031.95
2023-01-24T14:30:11.738Z,1032.23
2023-01-24T14:58:44.429Z,1032.34
2023-01-24T15:27:09.810Z,1032.45
2023-01-24T15:55:56.046Z,1032.63
2023-01-24T16:24:16.026Z,1032.71
2023-01-24T16:52:24.232Z,1032.84
2023-01-24T17:21:02.116Z,1032.95
2023-01-24T17:49:37.330Z,1033.1
2023-01-24T18:18:20.463Z,1033.4
2023-01-24T18:46:57.100Z,1033.32
2023-01-24T19:15:59.536Z,1033.26
2023-01-24T19:44:41.467Z,1033.2
2023-01-24T20:13:32.388Z,1033.23
2023-01-24T20:41:52.842Z,1033.29
2023-01-24T21:10:41.259Z,1033.32
2023-01-24T21:39:29.818Z,1033.54
2023-01-24T22:08:03.593Z,1033.43
2023-01-24T22:36:45.237Z,1033.45
2023-01-24T23:05:04.450Z,1033.31
2023-01-24T23:33:43.585Z,1033.07
